sensor_id;sensor_type;location;lat;lon;timestamp;P1;durP1;ratioP1;P2;durP2;ratioP2
23567;SDS011;11962;50.838;4.430;2023-04-16T00:00:50;6.13;;;4.25;;
23567;SDS011;11962;50.838;4.430;2023-04-16T00:03:15;11.88;;;4.35;;
23567;SDS011;11962;50.838;4.430;2023-04-16T00:05:41;8.70;;;3.85;;
23567;SDS011;11962;50.838;4.430;2023-04-16T00:08:07;8.75;;;4.28;;
23567;SDS011;11962;50.838;4.430;2023-04-16T00:10:33;15.05;;;5.50;;
23567;SDS011;11962;50.838;4.430;2023-04-16T00:12:59;14.05;;;4.82;;
23567;SDS011;11962;50.838;4.430;2023-04-16T00:15:25;9.23;;;4.60;;
23567;SDS011;11962;50.838;4.430;2023-04-16T00:17:51;12.68;;;4.90;;
23567;SDS011;11962;50.838;4.430;2023-04-16T00:20:16;12.93;;;5.13;;
23567;SDS011;11962;50.838;4.430;2023-04-16T00:22:44;10.57;;;4.93;;
23567;SDS011;11962;50.838;4.430;2023-04-16T00:25:10;9.68;;;4.35;;
23567;SDS011;11962;50.838;4.430;2023-04-16T00:27:35;13.85;;;4.70;;
23567;SDS011;11962;50.838;4.430;2023-04-16T00:30:02;12.75;;;5.40;;
23567;SDS011;11962;50.838;4.430;2023-04-16T00:32:28;12.05;;;6.10;;
23567;SDS011;11962;50.838;4.430;2023-04-16T00:34:54;11.18;;;5.88;;
23567;SDS011;11962;50.838;4.430;2023-04-16T00:37:20;9.82;;;5.30;;
23567;SDS011;11962;50.838;4.430;2023-04-16T00:39:45;12.75;;;5.75;;
23567;SDS011;11962;50.838;4.430;2023-04-16T00:42:11;11.75;;;5.95;;
23567;SDS011;11962;50.838;4.430;2023-04-16T00:44:37;10.48;;;5.40;;
23567;SDS011;11962;50.838;4.430;2023-04-16T00:47:03;8.88;;;5.40;;
23567;SDS011;11962;50.838;4.430;2023-04-16T00:49:31;10.35;;;5.72;;
23567;SDS011;11962;50.838;4.430;2023-04-16T00:51:57;13.45;;;4.88;;
23567;SDS011;11962;50.838;4.430;2023-04-16T00:54:23;10.20;;;4.32;;
23567;SDS011;11962;50.838;4.430;2023-04-16T00:56:53;8.68;;;3.95;;
23567;SDS011;11962;50.838;4.430;2023-04-16T00:59:20;13.73;;;4.22;;
23567;SDS011;11962;50.838;4.430;2023-04-16T01:01:46;14.68;;;4.18;;
23567;SDS011;11962;50.838;4.430;2023-04-16T01:04:12;9.57;;;3.70;;
23567;SDS011;11962;50.838;4.430;2023-04-16T01:06:38;6.68;;;3.35;;
23567;SDS011;11962;50.838;4.430;2023-04-16T01:09:04;7.35;;;3.70;;
23567;SDS011;11962;50.838;4.430;2023-04-16T01:11:30;8.98;;;4.30;;
23567;SDS011;11962;50.838;4.430;2023-04-16T01:13:56;13.80;;;4.85;;
23567;SDS011;11962;50.838;4.430;2023-04-16T01:16:22;9.35;;;4.00;;
23567;SDS011;11962;50.838;4.430;2023-04-16T01:18:48;8.30;;;3.40;;
23567;SDS011;11962;50.838;4.430;2023-04-16T01:21:13;10.13;;;3.90;;
23567;SDS011;11962;50.838;4.430;2023-04-16T01:23:39;9.43;;;3.30;;
23567;SDS011;11962;50.838;4.430;2023-04-16T01:26:05;7.75;;;3.25;;
23567;SDS011;11962;50.838;4.430;2023-04-16T01:28:31;9.23;;;3.70;;
23567;SDS011;11962;50.838;4.430;2023-04-16T01:30:56;5.78;;;2.92;;
23567;SDS011;11962;50.838;4.430;2023-04-16T01:33:22;11.50;;;3.15;;
23567;SDS011;11962;50.838;4.430;2023-04-16T01:35:48;8.35;;;2.72;;
23567;SDS011;11962;50.838;4.430;2023-04-16T01:38:14;5.63;;;2.20;;
23567;SDS011;11962;50.838;4.430;2023-04-16T01:40:39;8.15;;;2.70;;
23567;SDS011;11962;50.838;4.430;2023-04-16T01:43:05;4.88;;;2.22;;
23567;SDS011;11962;50.838;4.430;2023-04-16T01:45:32;5.35;;;2.05;;
23567;SDS011;11962;50.838;4.430;2023-04-16T01:47:58;8.73;;;2.42;;
23567;SDS011;11962;50.838;4.430;2023-04-16T01:50:24;3.40;;;2.03;;
23567;SDS011;11962;50.838;4.430;2023-04-16T01:52:56;4.68;;;2.13;;
23567;SDS011;11962;50.838;4.430;2023-04-16T01:55:22;8.88;;;2.38;;
23567;SDS011;11962;50.838;4.430;2023-04-16T01:57:48;9.15;;;3.15;;
23567;SDS011;11962;50.838;4.430;2023-04-16T02:00:14;10.68;;;2.45;;
23567;SDS011;11962;50.838;4.430;2023-04-16T02:02:40;8.48;;;2.38;;
23567;SDS011;11962;50.838;4.430;2023-04-16T02:05:06;7.57;;;2.30;;
23567;SDS011;11962;50.838;4.430;2023-04-16T02:07:32;6.78;;;2.30;;
23567;SDS011;11962;50.838;4.430;2023-04-16T02:09:57;7.40;;;2.85;;
23567;SDS011;11962;50.838;4.430;2023-04-16T02:12:24;5.88;;;2.13;;
23567;SDS011;11962;50.838;4.430;2023-04-16T02:14:50;8.25;;;2.70;;
23567;SDS011;11962;50.838;4.430;2023-04-16T02:17:16;7.60;;;2.78;;
23567;SDS011;11962;50.838;4.430;2023-04-16T02:19:42;10.27;;;2.92;;
23567;SDS011;11962;50.838;4.430;2023-04-16T02:22:07;7.32;;;3.10;;
23567;SDS011;11962;50.838;4.430;2023-04-16T02:24:33;8.38;;;3.65;;
23567;SDS011;11962;50.838;4.430;2023-04-16T02:26:59;11.70;;;3.28;;
23567;SDS011;11962;50.838;4.430;2023-04-16T02:29:25;6.47;;;3.00;;
23567;SDS011;11962;50.838;4.430;2023-04-16T02:31:51;7.50;;;2.95;;
23567;SDS011;11962;50.838;4.430;2023-04-16T02:34:17;10.45;;;3.00;;
23567;SDS011;11962;50.838;4.430;2023-04-16T02:36:42;6.28;;;2.80;;
23567;SDS011;11962;50.838;4.430;2023-04-16T02:39:08;8.40;;;3.08;;
23567;SDS011;11962;50.838;4.430;2023-04-16T02:41:34;9.07;;;3.00;;
23567;SDS011;11962;50.838;4.430;2023-04-16T02:44:00;7.88;;;3.20;;
23567;SDS011;11962;50.838;4.430;2023-04-16T02:46:26;5.90;;;2.88;;
23567;SDS011;11962;50.838;4.430;2023-04-16T02:48:52;5.25;;;2.78;;
23567;SDS011;11962;50.838;4.430;2023-04-16T02:51:17;8.60;;;2.78;;
23567;SDS011;11962;50.838;4.430;2023-04-16T02:53:43;9.73;;;2.97;;
23567;SDS011;11962;50.838;4.430;2023-04-16T02:56:10;7.55;;;3.50;;
23567;SDS011;11962;50.838;4.430;2023-04-16T02:58:37;10.63;;;3.40;;
23567;SDS011;11962;50.838;4.430;2023-04-16T03:01:02;6.28;;;3.13;;
23567;SDS011;11962;50.838;4.430;2023-04-16T03:03:28;8.57;;;3.67;;
23567;SDS011;11962;50.838;4.430;2023-04-16T03:05:54;6.93;;;3.42;;
23567;SDS011;11962;50.838;4.430;2023-04-16T03:08:20;11.65;;;3.78;;
23567;SDS011;11962;50.838;4.430;2023-04-16T03:10:46;8.27;;;3.45;;
23567;SDS011;11962;50.838;4.430;2023-04-16T03:13:11;8.18;;;3.30;;
23567;SDS011;11962;50.838;4.430;2023-04-16T03:15:38;8.88;;;3.28;;
23567;SDS011;11962;50.838;4.430;2023-04-16T03:18:04;10.98;;;3.30;;
23567;SDS011;11962;50.838;4.430;2023-04-16T03:20:29;7.65;;;3.53;;
23567;SDS011;11962;50.838;4.430;2023-04-16T03:22:55;9.02;;;3.42;;
23567;SDS011;11962;50.838;4.430;2023-04-16T03:25:21;10.50;;;3.60;;
23567;SDS011;11962;50.838;4.430;2023-04-16T03:27:47;7.70;;;3.20;;
23567;SDS011;11962;50.838;4.430;2023-04-16T03:30:13;7.50;;;3.47;;
23567;SDS011;11962;50.838;4.430;2023-04-16T03:32:39;7.95;;;3.50;;
23567;SDS011;11962;50.838;4.430;2023-04-16T03:35:05;10.88;;;3.42;;
23567;SDS011;11962;50.838;4.430;2023-04-16T03:37:32;7.78;;;3.63;;
23567;SDS011;11962;50.838;4.430;2023-04-16T03:39:59;8.32;;;3.67;;
23567;SDS011;11962;50.838;4.430;2023-04-16T03:42:25;11.32;;;3.67;;
23567;SDS011;11962;50.838;4.430;2023-04-16T03:44:51;8.88;;;3.20;;
23567;SDS011;11962;50.838;4.430;2023-04-16T03:47:17;8.48;;;3.30;;
23567;SDS011;11962;50.838;4.430;2023-04-16T03:49:44;7.63;;;3.15;;
23567;SDS011;11962;50.838;4.430;2023-04-16T03:52:10;10.80;;;3.72;;
23567;SDS011;11962;50.838;4.430;2023-04-16T03:54:39;7.25;;;2.75;;
23567;SDS011;11962;50.838;4.430;2023-04-16T03:59:30;11.05;;;3.22;;
23567;SDS011;11962;50.838;4.430;2023-04-16T04:01:56;8.63;;;2.92;;
23567;SDS011;11962;50.838;4.430;2023-04-16T04:04:21;10.85;;;3.00;;
23567;SDS011;11962;50.838;4.430;2023-04-16T04:06:47;10.27;;;2.83;;
23567;SDS011;11962;50.838;4.430;2023-04-16T04:09:13;8.18;;;2.70;;
23567;SDS011;11962;50.838;4.430;2023-04-16T04:11:40;6.32;;;2.97;;
23567;SDS011;11962;50.838;4.430;2023-04-16T04:14:06;9.55;;;3.10;;
23567;SDS011;11962;50.838;4.430;2023-04-16T04:16:32;11.07;;;3.05;;
23567;SDS011;11962;50.838;4.430;2023-04-16T04:18:58;9.23;;;3.15;;
23567;SDS011;11962;50.838;4.430;2023-04-16T04:21:25;9.27;;;3.58;;
23567;SDS011;11962;50.838;4.430;2023-04-16T04:23:52;8.70;;;3.70;;
23567;SDS011;11962;50.838;4.430;2023-04-16T04:26:18;9.98;;;3.63;;
23567;SDS011;11962;50.838;4.430;2023-04-16T04:28:43;11.98;;;3.20;;
23567;SDS011;11962;50.838;4.430;2023-04-16T04:31:09;8.38;;;3.72;;
23567;SDS011;11962;50.838;4.430;2023-04-16T04:33:35;10.70;;;4.00;;
23567;SDS011;11962;50.838;4.430;2023-04-16T04:36:01;9.10;;;3.78;;
23567;SDS011;11962;50.838;4.430;2023-04-16T04:38:27;8.20;;;3.80;;
23567;SDS011;11962;50.838;4.430;2023-04-16T04:40:54;13.68;;;4.72;;
23567;SDS011;11962;50.838;4.430;2023-04-16T04:43:20;11.02;;;3.75;;
23567;SDS011;11962;50.838;4.430;2023-04-16T04:45:46;9.98;;;4.55;;
23567;SDS011;11962;50.838;4.430;2023-04-16T04:48:13;8.68;;;4.43;;
23567;SDS011;11962;50.838;4.430;2023-04-16T04:50:39;7.32;;;4.90;;
23567;SDS011;11962;50.838;4.430;2023-04-16T04:53:05;12.90;;;5.95;;
23567;SDS011;11962;50.838;4.430;2023-04-16T04:55:36;9.52;;;5.40;;
23567;SDS011;11962;50.838;4.430;2023-04-16T04:58:05;12.10;;;5.68;;
23567;SDS011;11962;50.838;4.430;2023-04-16T05:00:32;12.80;;;6.28;;
23567;SDS011;11962;50.838;4.430;2023-04-16T05:03:02;10.63;;;6.38;;
23567;SDS011;11962;50.838;4.430;2023-04-16T05:05:29;12.52;;;5.95;;
23567;SDS011;11962;50.838;4.430;2023-04-16T05:07:55;10.30;;;5.70;;
23567;SDS011;11962;50.838;4.430;2023-04-16T05:10:21;11.63;;;5.93;;
23567;SDS011;11962;50.838;4.430;2023-04-16T05:12:47;9.85;;;5.28;;
23567;SDS011;11962;50.838;4.430;2023-04-16T05:15:13;10.15;;;5.25;;
23567;SDS011;11962;50.838;4.430;2023-04-16T05:17:39;7.93;;;5.20;;
23567;SDS011;11962;50.838;4.430;2023-04-16T05:20:05;7.30;;;4.57;;
23567;SDS011;11962;50.838;4.430;2023-04-16T05:22:32;9.60;;;4.28;;
23567;SDS011;11962;50.838;4.430;2023-04-16T05:24:58;8.05;;;4.28;;
23567;SDS011;11962;50.838;4.430;2023-04-16T05:27:24;12.32;;;4.07;;
23567;SDS011;11962;50.838;4.430;2023-04-16T05:29:50;8.60;;;3.20;;
23567;SDS011;11962;50.838;4.430;2023-04-16T05:32:15;4.72;;;3.20;;
23567;SDS011;11962;50.838;4.430;2023-04-16T05:34:41;5.25;;;2.90;;
23567;SDS011;11962;50.838;4.430;2023-04-16T05:37:07;7.82;;;2.90;;
23567;SDS011;11962;50.838;4.430;2023-04-16T05:39:32;11.90;;;3.28;;
23567;SDS011;11962;50.838;4.430;2023-04-16T05:41:58;10.60;;;2.85;;
23567;SDS011;11962;50.838;4.430;2023-04-16T05:44:24;4.93;;;2.40;;
23567;SDS011;11962;50.838;4.430;2023-04-16T05:46:50;9.13;;;2.80;;
23567;SDS011;11962;50.838;4.430;2023-04-16T05:49:16;6.10;;;2.55;;
23567;SDS011;11962;50.838;4.430;2023-04-16T05:51:46;13.70;;;2.97;;
23567;SDS011;11962;50.838;4.430;2023-04-16T05:54:12;8.95;;;2.80;;
23567;SDS011;11962;50.838;4.430;2023-04-16T05:56:38;7.65;;;2.63;;
23567;SDS011;11962;50.838;4.430;2023-04-16T05:59:04;11.35;;;2.80;;
23567;SDS011;11962;50.838;4.430;2023-04-16T06:01:29;8.60;;;2.50;;
23567;SDS011;11962;50.838;4.430;2023-04-16T06:03:56;9.23;;;2.65;;
23567;SDS011;11962;50.838;4.430;2023-04-16T06:06:22;13.07;;;2.72;;
23567;SDS011;11962;50.838;4.430;2023-04-16T06:08:48;7.65;;;2.88;;
23567;SDS011;11962;50.838;4.430;2023-04-16T06:11:13;10.25;;;2.90;;
23567;SDS011;11962;50.838;4.430;2023-04-16T06:13:40;9.98;;;3.15;;
23567;SDS011;11962;50.838;4.430;2023-04-16T06:16:06;7.65;;;3.50;;
23567;SDS011;11962;50.838;4.430;2023-04-16T06:18:32;8.60;;;3.25;;
23567;SDS011;11962;50.838;4.430;2023-04-16T06:20:58;12.50;;;3.58;;
23567;SDS011;11962;50.838;4.430;2023-04-16T06:23:24;9.23;;;3.53;;
23567;SDS011;11962;50.838;4.430;2023-04-16T06:25:49;8.75;;;3.72;;
23567;SDS011;11962;50.838;4.430;2023-04-16T06:28:15;11.00;;;4.95;;
23567;SDS011;11962;50.838;4.430;2023-04-16T06:30:41;9.27;;;4.13;;
23567;SDS011;11962;50.838;4.430;2023-04-16T06:33:07;12.55;;;4.13;;
23567;SDS011;11962;50.838;4.430;2023-04-16T06:35:33;12.90;;;4.78;;
23567;SDS011;11962;50.838;4.430;2023-04-16T06:37:58;9.77;;;4.68;;
23567;SDS011;11962;50.838;4.430;2023-04-16T06:40:24;9.90;;;4.47;;
23567;SDS011;11962;50.838;4.430;2023-04-16T06:42:50;9.95;;;4.93;;
23567;SDS011;11962;50.838;4.430;2023-04-16T06:45:16;11.80;;;4.72;;
23567;SDS011;11962;50.838;4.430;2023-04-16T06:47:42;9.25;;;4.32;;
23567;SDS011;11962;50.838;4.430;2023-04-16T06:50:08;7.90;;;4.18;;
23567;SDS011;11962;50.838;4.430;2023-04-16T06:52:34;12.45;;;5.20;;
23567;SDS011;11962;50.838;4.430;2023-04-16T06:55:00;7.95;;;4.03;;
23567;SDS011;11962;50.838;4.430;2023-04-16T06:57:26;8.32;;;4.28;;
23567;SDS011;11962;50.838;4.430;2023-04-16T06:59:52;8.88;;;3.83;;
23567;SDS011;11962;50.838;4.430;2023-04-16T07:02:17;9.43;;;4.63;;
23567;SDS011;11962;50.838;4.430;2023-04-16T07:04:49;10.35;;;4.05;;
23567;SDS011;11962;50.838;4.430;2023-04-16T07:07:17;12.43;;;4.15;;
23567;SDS011;11962;50.838;4.430;2023-04-16T07:09:44;13.65;;;5.07;;
23567;SDS011;11962;50.838;4.430;2023-04-16T07:12:10;14.70;;;5.53;;
23567;SDS011;11962;50.838;4.430;2023-04-16T07:14:36;12.32;;;5.50;;
23567;SDS011;11962;50.838;4.430;2023-04-16T07:17:01;11.18;;;5.88;;
23567;SDS011;11962;50.838;4.430;2023-04-16T07:19:27;15.70;;;5.97;;
23567;SDS011;11962;50.838;4.430;2023-04-16T07:22:02;17.88;;;6.70;;
23567;SDS011;11962;50.838;4.430;2023-04-16T07:24:32;9.02;;;5.55;;
23567;SDS011;11962;50.838;4.430;2023-04-16T07:26:58;15.85;;;7.80;;
23567;SDS011;11962;50.838;4.430;2023-04-16T07:29:24;16.92;;;6.85;;
23567;SDS011;11962;50.838;4.430;2023-04-16T07:31:50;11.05;;;6.85;;
23567;SDS011;11962;50.838;4.430;2023-04-16T07:34:15;13.52;;;6.47;;
23567;SDS011;11962;50.838;4.430;2023-04-16T07:36:41;15.52;;;6.80;;
23567;SDS011;11962;50.838;4.430;2023-04-16T07:39:07;19.52;;;7.55;;
23567;SDS011;11962;50.838;4.430;2023-04-16T07:41:34;15.90;;;6.70;;
23567;SDS011;11962;50.838;4.430;2023-04-16T07:44:01;11.90;;;6.35;;
23567;SDS011;11962;50.838;4.430;2023-04-16T07:46:27;20.08;;;6.30;;
23567;SDS011;11962;50.838;4.430;2023-04-16T07:48:53;17.83;;;6.57;;
23567;SDS011;11962;50.838;4.430;2023-04-16T07:51:19;18.88;;;7.32;;
23567;SDS011;11962;50.838;4.430;2023-04-16T07:53:45;18.33;;;7.50;;
23567;SDS011;11962;50.838;4.430;2023-04-16T07:56:10;16.65;;;6.35;;
23567;SDS011;11962;50.838;4.430;2023-04-16T07:58:36;21.80;;;7.65;;
23567;SDS011;11962;50.838;4.430;2023-04-16T08:01:02;14.45;;;5.93;;
23567;SDS011;11962;50.838;4.430;2023-04-16T08:03:28;19.60;;;7.60;;
23567;SDS011;11962;50.838;4.430;2023-04-16T08:05:54;22.60;;;7.47;;
23567;SDS011;11962;50.838;4.430;2023-04-16T08:08:20;21.88;;;7.43;;
23567;SDS011;11962;50.838;4.430;2023-04-16T08:10:46;20.48;;;7.47;;
23567;SDS011;11962;50.838;4.430;2023-04-16T08:13:12;16.02;;;7.95;;
23567;SDS011;11962;50.838;4.430;2023-04-16T08:15:38;19.80;;;7.75;;
23567;SDS011;11962;50.838;4.430;2023-04-16T08:18:03;17.85;;;7.35;;
23567;SDS011;11962;50.838;4.430;2023-04-16T08:20:31;19.33;;;8.23;;
23567;SDS011;11962;50.838;4.430;2023-04-16T08:22:57;16.05;;;7.40;;
23567;SDS011;11962;50.838;4.430;2023-04-16T08:25:23;14.48;;;7.75;;
23567;SDS011;11962;50.838;4.430;2023-04-16T08:27:49;15.60;;;7.10;;
23567;SDS011;11962;50.838;4.430;2023-04-16T08:30:15;18.63;;;7.47;;
23567;SDS011;11962;50.838;4.430;2023-04-16T08:32:41;19.23;;;7.05;;
23567;SDS011;11962;50.838;4.430;2023-04-16T08:35:07;13.45;;;6.70;;
23567;SDS011;11962;50.838;4.430;2023-04-16T08:37:34;19.10;;;6.97;;
23567;SDS011;11962;50.838;4.430;2023-04-16T08:40:00;12.18;;;6.38;;
23567;SDS011;11962;50.838;4.430;2023-04-16T08:42:30;17.45;;;6.55;;
23567;SDS011;11962;50.838;4.430;2023-04-16T08:45:17;15.50;;;6.38;;
23567;SDS011;11962;50.838;4.430;2023-04-16T08:47:47;9.63;;;6.53;;
23567;SDS011;11962;50.838;4.430;2023-04-16T08:50:14;18.40;;;7.10;;
23567;SDS011;11962;50.838;4.430;2023-04-16T08:52:48;19.58;;;7.97;;
23567;SDS011;11962;50.838;4.430;2023-04-16T08:55:22;18.23;;;7.65;;
23567;SDS011;11962;50.838;4.430;2023-04-16T08:57:56;24.73;;;8.30;;
23567;SDS011;11962;50.838;4.430;2023-04-16T09:00:23;19.25;;;8.85;;
23567;SDS011;11962;50.838;4.430;2023-04-16T09:02:49;19.27;;;8.35;;
23567;SDS011;11962;50.838;4.430;2023-04-16T09:05:16;22.17;;;8.15;;
23567;SDS011;11962;50.838;4.430;2023-04-16T09:07:45;19.90;;;8.20;;
23567;SDS011;11962;50.838;4.430;2023-04-16T09:10:13;25.30;;;8.93;;
23567;SDS011;11962;50.838;4.430;2023-04-16T09:12:40;16.63;;;8.88;;
23567;SDS011;11962;50.838;4.430;2023-04-16T09:15:08;18.80;;;8.70;;
23567;SDS011;11962;50.838;4.430;2023-04-16T09:17:35;24.88;;;9.95;;
23567;SDS011;11962;50.838;4.430;2023-04-16T09:20:05;23.90;;;10.23;;
23567;SDS011;11962;50.838;4.430;2023-04-16T09:22:33;21.42;;;9.05;;
23567;SDS011;11962;50.838;4.430;2023-04-16T09:24:59;19.50;;;8.60;;
23567;SDS011;11962;50.838;4.430;2023-04-16T09:27:25;23.63;;;8.27;;
23567;SDS011;11962;50.838;4.430;2023-04-16T09:29:51;20.90;;;8.50;;
23567;SDS011;11962;50.838;4.430;2023-04-16T09:32:18;20.80;;;8.48;;
23567;SDS011;11962;50.838;4.430;2023-04-16T09:34:54;19.83;;;8.70;;
23567;SDS011;11962;50.838;4.430;2023-04-16T09:37:25;23.20;;;8.98;;
23567;SDS011;11962;50.838;4.430;2023-04-16T09:39:58;20.58;;;8.93;;
23567;SDS011;11962;50.838;4.430;2023-04-16T09:42:26;20.33;;;9.15;;
23567;SDS011;11962;50.838;4.430;2023-04-16T09:44:53;21.52;;;9.25;;
23567;SDS011;11962;50.838;4.430;2023-04-16T09:47:20;20.63;;;8.98;;
23567;SDS011;11962;50.838;4.430;2023-04-16T09:49:47;16.55;;;8.63;;
23567;SDS011;11962;50.838;4.430;2023-04-16T09:52:14;16.65;;;8.52;;
23567;SDS011;11962;50.838;4.430;2023-04-16T09:54:50;19.73;;;9.02;;
23567;SDS011;11962;50.838;4.430;2023-04-16T09:57:20;20.33;;;8.82;;
23567;SDS011;11962;50.838;4.430;2023-04-16T09:59:47;25.63;;;8.38;;
23567;SDS011;11962;50.838;4.430;2023-04-16T10:02:31;17.10;;;8.20;;
23567;SDS011;11962;50.838;4.430;2023-04-16T10:04:59;15.93;;;8.35;;
23567;SDS011;11962;50.838;4.430;2023-04-16T10:09:53;17.75;;;7.70;;
23567;SDS011;11962;50.838;4.430;2023-04-16T10:12:20;17.65;;;8.43;;
23567;SDS011;11962;50.838;4.430;2023-04-16T10:14:46;15.77;;;7.65;;
23567;SDS011;11962;50.838;4.430;2023-04-16T10:17:11;19.23;;;7.93;;
23567;SDS011;11962;50.838;4.430;2023-04-16T10:19:38;15.85;;;7.57;;
23567;SDS011;11962;50.838;4.430;2023-04-16T10:22:04;16.85;;;7.90;;
23567;SDS011;11962;50.838;4.430;2023-04-16T10:24:31;17.98;;;8.55;;
23567;SDS011;11962;50.838;4.430;2023-04-16T10:26:58;13.48;;;7.25;;
23567;SDS011;11962;50.838;4.430;2023-04-16T10:29:25;14.25;;;7.93;;
23567;SDS011;11962;50.838;4.430;2023-04-16T10:31:52;15.63;;;8.30;;
23567;SDS011;11962;50.838;4.430;2023-04-16T10:34:19;19.98;;;8.15;;
23567;SDS011;11962;50.838;4.430;2023-04-16T10:36:49;16.35;;;8.27;;
23567;SDS011;11962;50.838;4.430;2023-04-16T10:39:20;17.75;;;7.75;;
23567;SDS011;11962;50.838;4.430;2023-04-16T10:41:49;22.05;;;10.60;;
23567;SDS011;11962;50.838;4.430;2023-04-16T10:44:16;21.98;;;8.98;;
23567;SDS011;11962;50.838;4.430;2023-04-16T10:46:46;19.45;;;8.57;;
23567;SDS011;11962;50.838;4.430;2023-04-16T10:54:20;19.52;;;8.88;;
23567;SDS011;11962;50.838;4.430;2023-04-16T10:56:48;18.92;;;8.32;;
23567;SDS011;11962;50.838;4.430;2023-04-16T10:59:16;15.20;;;8.50;;
23567;SDS011;11962;50.838;4.430;2023-04-16T11:01:45;25.25;;;9.02;;
23567;SDS011;11962;50.838;4.430;2023-04-16T11:14:48;19.38;;;8.55;;
23567;SDS011;11962;50.838;4.430;2023-04-16T11:17:18;16.00;;;8.57;;
23567;SDS011;11962;50.838;4.430;2023-04-16T11:19:45;17.98;;;9.18;;
23567;SDS011;11962;50.838;4.430;2023-04-16T11:22:12;14.43;;;8.75;;
23567;SDS011;11962;50.838;4.430;2023-04-16T11:24:39;22.65;;;9.68;;
23567;SDS011;11962;50.838;4.430;2023-04-16T11:27:05;20.70;;;8.80;;
23567;SDS011;11962;50.838;4.430;2023-04-16T11:29:32;18.08;;;8.98;;
23567;SDS011;11962;50.838;4.430;2023-04-16T11:31:57;19.13;;;9.32;;
23567;SDS011;11962;50.838;4.430;2023-04-16T11:34:23;19.00;;;8.70;;
23567;SDS011;11962;50.838;4.430;2023-04-16T11:36:50;22.67;;;9.40;;
23567;SDS011;11962;50.838;4.430;2023-04-16T11:39:17;17.33;;;8.73;;
23567;SDS011;11962;50.838;4.430;2023-04-16T11:41:48;16.77;;;8.35;;
23567;SDS011;11962;50.838;4.430;2023-04-16T11:44:23;20.83;;;9.48;;
23567;SDS011;11962;50.838;4.430;2023-04-16T11:46:51;13.10;;;8.45;;
23567;SDS011;11962;50.838;4.430;2023-04-16T11:49:27;16.13;;;8.68;;
23567;SDS011;11962;50.838;4.430;2023-04-16T11:51:56;25.90;;;9.48;;
23567;SDS011;11962;50.838;4.430;2023-04-16T11:54:23;20.45;;;9.77;;
23567;SDS011;11962;50.838;4.430;2023-04-16T11:56:50;21.50;;;10.50;;
23567;SDS011;11962;50.838;4.430;2023-04-16T11:59:18;20.85;;;9.77;;
23567;SDS011;11962;50.838;4.430;2023-04-16T12:04:24;27.42;;;10.43;;
23567;SDS011;11962;50.838;4.430;2023-04-16T12:07:09;20.75;;;9.85;;
23567;SDS011;11962;50.838;4.430;2023-04-16T12:09:36;22.05;;;9.60;;
23567;SDS011;11962;50.838;4.430;2023-04-16T12:12:03;22.80;;;10.52;;
23567;SDS011;11962;50.838;4.430;2023-04-16T12:14:30;20.00;;;9.85;;
23567;SDS011;11962;50.838;4.430;2023-04-16T12:17:03;23.15;;;10.05;;
23567;SDS011;11962;50.838;4.430;2023-04-16T12:19:51;21.48;;;9.57;;
23567;SDS011;11962;50.838;4.430;2023-04-16T12:25:00;19.17;;;10.63;;
23567;SDS011;11962;50.838;4.430;2023-04-16T12:30:26;19.98;;;9.82;;
23567;SDS011;11962;50.838;4.430;2023-04-16T12:33:13;24.60;;;12.55;;
23567;SDS011;11962;50.838;4.430;2023-04-16T12:35:40;21.50;;;10.23;;
23567;SDS011;11962;50.838;4.430;2023-04-16T12:38:07;18.67;;;10.23;;
23567;SDS011;11962;50.838;4.430;2023-04-16T12:40:33;18.67;;;9.68;;
23567;SDS011;11962;50.838;4.430;2023-04-16T12:43:00;17.20;;;9.43;;
23567;SDS011;11962;50.838;4.430;2023-04-16T12:45:26;21.40;;;10.60;;
23567;SDS011;11962;50.838;4.430;2023-04-16T12:47:52;20.70;;;10.43;;
23567;SDS011;11962;50.838;4.430;2023-04-16T12:50:18;20.35;;;11.38;;
23567;SDS011;11962;50.838;4.430;2023-04-16T12:52:44;25.38;;;11.10;;
23567;SDS011;11962;50.838;4.430;2023-04-16T12:55:10;18.90;;;10.27;;
23567;SDS011;11962;50.838;4.430;2023-04-16T12:57:38;24.57;;;11.10;;
23567;SDS011;11962;50.838;4.430;2023-04-16T13:00:04;26.55;;;9.98;;
23567;SDS011;11962;50.838;4.430;2023-04-16T13:02:32;17.63;;;9.95;;
23567;SDS011;11962;50.838;4.430;2023-04-16T13:04:58;22.65;;;9.93;;
23567;SDS011;11962;50.838;4.430;2023-04-16T13:07:24;26.55;;;9.90;;
23567;SDS011;11962;50.838;4.430;2023-04-16T13:09:51;21.30;;;10.13;;
23567;SDS011;11962;50.838;4.430;2023-04-16T13:12:17;16.00;;;10.25;;
23567;SDS011;11962;50.838;4.430;2023-04-16T13:14:42;22.50;;;10.80;;
23567;SDS011;11962;50.838;4.430;2023-04-16T13:17:09;20.38;;;10.68;;
23567;SDS011;11962;50.838;4.430;2023-04-16T13:19:35;25.55;;;10.93;;
23567;SDS011;11962;50.838;4.430;2023-04-16T13:22:00;20.42;;;11.50;;
23567;SDS011;11962;50.838;4.430;2023-04-16T13:24:26;21.70;;;10.48;;
23567;SDS011;11962;50.838;4.430;2023-04-16T13:26:52;21.38;;;11.43;;
23567;SDS011;11962;50.838;4.430;2023-04-16T13:29:18;20.98;;;11.55;;
23567;SDS011;11962;50.838;4.430;2023-04-16T13:31:45;20.70;;;10.95;;
23567;SDS011;11962;50.838;4.430;2023-04-16T13:34:11;24.17;;;11.13;;
23567;SDS011;11962;50.838;4.430;2023-04-16T13:36:43;20.67;;;11.55;;
23567;SDS011;11962;50.838;4.430;2023-04-16T13:39:09;25.67;;;13.25;;
23567;SDS011;11962;50.838;4.430;2023-04-16T13:41:38;19.65;;;12.25;;
23567;SDS011;11962;50.838;4.430;2023-04-16T13:44:04;25.10;;;12.30;;
23567;SDS011;11962;50.838;4.430;2023-04-16T13:46:30;22.45;;;12.00;;
23567;SDS011;11962;50.838;4.430;2023-04-16T13:48:56;27.73;;;13.38;;
23567;SDS011;11962;50.838;4.430;2023-04-16T13:51:22;25.02;;;12.95;;
23567;SDS011;11962;50.838;4.430;2023-04-16T13:53:48;26.55;;;13.30;;
23567;SDS011;11962;50.838;4.430;2023-04-16T13:56:14;23.50;;;13.30;;
23567;SDS011;11962;50.838;4.430;2023-04-16T13:58:40;20.73;;;12.68;;
23567;SDS011;11962;50.838;4.430;2023-04-16T14:01:06;22.23;;;12.68;;
23567;SDS011;11962;50.838;4.430;2023-04-16T14:03:32;24.92;;;12.32;;
23567;SDS011;11962;50.838;4.430;2023-04-16T14:06:03;27.88;;;13.05;;
23567;SDS011;11962;50.838;4.430;2023-04-16T14:08:29;24.13;;;12.40;;
23567;SDS011;11962;50.838;4.430;2023-04-16T14:10:55;21.33;;;12.75;;
23567;SDS011;11962;50.838;4.430;2023-04-16T14:13:22;20.45;;;12.90;;
23567;SDS011;11962;50.838;4.430;2023-04-16T14:15:48;25.45;;;13.88;;
23567;SDS011;11962;50.838;4.430;2023-04-16T14:18:14;21.80;;;13.00;;
23567;SDS011;11962;50.838;4.430;2023-04-16T14:20:40;24.13;;;12.85;;
23567;SDS011;11962;50.838;4.430;2023-04-16T14:23:06;22.83;;;12.68;;
23567;SDS011;11962;50.838;4.430;2023-04-16T14:25:32;19.92;;;12.27;;
23567;SDS011;11962;50.838;4.430;2023-04-16T14:28:04;20.40;;;11.60;;
23567;SDS011;11962;50.838;4.430;2023-04-16T14:30:30;19.83;;;11.27;;
23567;SDS011;11962;50.838;4.430;2023-04-16T14:32:55;17.65;;;11.18;;
23567;SDS011;11962;50.838;4.430;2023-04-16T14:35:21;20.70;;;12.60;;
23567;SDS011;11962;50.838;4.430;2023-04-16T14:37:47;19.83;;;11.93;;
23567;SDS011;11962;50.838;4.430;2023-04-16T14:40:13;21.55;;;12.75;;
23567;SDS011;11962;50.838;4.430;2023-04-16T14:42:39;20.65;;;12.57;;
23567;SDS011;11962;50.838;4.430;2023-04-16T14:45:05;20.35;;;12.82;;
23567;SDS011;11962;50.838;4.430;2023-04-16T14:47:32;22.45;;;13.73;;
23567;SDS011;11962;50.838;4.430;2023-04-16T14:49:59;20.70;;;14.30;;
23567;SDS011;11962;50.838;4.430;2023-04-16T14:52:25;20.90;;;14.30;;
23567;SDS011;11962;50.838;4.430;2023-04-16T14:54:51;26.33;;;14.55;;
23567;SDS011;11962;50.838;4.430;2023-04-16T14:57:19;23.20;;;13.73;;
23567;SDS011;11962;50.838;4.430;2023-04-16T14:59:45;24.52;;;13.95;;
23567;SDS011;11962;50.838;4.430;2023-04-16T15:02:12;22.58;;;13.60;;